sensor_id;sensor_type;location;lat;lon;timestamp;temperature;humidity
20442;DHT22;10380;52.102;20.614;2023-04-03T00:01:05;2.30;99.90
20442;DHT22;10380;52.102;20.614;2023-04-03T00:03:32;2.20;99.90
20442;DHT22;10380;52.102;20.614;2023-04-03T00:05:59;2.20;99.90
20442;DHT22;10380;52.102;20.614;2023-04-03T00:08:26;2.10;99.90
20442;DHT22;10380;52.102;20.614;2023-04-03T00:10:53;2.10;99.90
20442;DHT22;10380;52.102;20.614;2023-04-03T00:13:20;2.00;99.90
20442;DHT22;10380;52.102;20.614;2023-04-03T00:15:47;2.00;99.90
20442;DHT22;10380;52.102;20.614;2023-04-03T00:18:14;1.90;99.90
20442;DHT22;10380;52.102;20.614;2023-04-03T00:20:42;1.90;99.90
20442;DHT22;10380;52.102;20.614;2023-04-03T00:23:10;1.90;99.90
20442;DHT22;10380;52.102;20.614;2023-04-03T00:25:37;1.90;99.90
20442;DHT22;10380;52.102;20.614;2023-04-03T00:28:06;1.90;99.90
20442;DHT22;10380;52.102;20.614;2023-04-03T00:30:34;1.80;99.90
20442;DHT22;10380;52.102;20.614;2023-04-03T00:33:02;1.80;99.90
20442;DHT22;10380;52.102;20.614;2023-04-03T00:35:29;1.80;99.90
20442;DHT22;10380;52.102;20.614;2023-04-03T00:37:57;1.70;99.90
20442;DHT22;10380;52.102;20.614;2023-04-03T00:40:26;1.70;99.90
20442;DHT22;10380;52.102;20.614;2023-04-03T00:42:58;1.70;99.90
20442;DHT22;10380;52.102;20.614;2023-04-03T00:45:36;1.70;99.90
20442;DHT22;10380;52.102;20.614;2023-04-03T00:48:05;1.70;99.90
20442;DHT22;10380;52.102;20.614;2023-04-03T00:50:36;1.70;99.90
20442;DHT22;10380;52.102;20.614;2023-04-03T00:53:06;1.70;99.90
20442;DHT22;10380;52.102;20.614;2023-04-03T00:55:35;1.70;99.90
20442;DHT22;10380;52.102;20.614;2023-04-03T00:58:03;1.70;99.90
20442;DHT22;10380;52.102;20.614;2023-04-03T01:00:31;1.70;99.90
20442;DHT22;10380;52.102;20.614;2023-04-03T01:02:59;1.70;99.90
20442;DHT22;10380;52.102;20.614;2023-04-03T01:05:26;1.70;99.90
20442;DHT22;10380;52.102;20.614;2023-04-03T01:07:53;1.70;99.90
20442;DHT22;10380;52.102;20.614;2023-04-03T01:10:21;1.60;99.90
20442;DHT22;10380;52.102;20.614;2023-04-03T01:12:50;1.60;99.90
20442;DHT22;10380;52.102;20.614;2023-04-03T01:15:20;1.60;99.90
20442;DHT22;10380;52.102;20.614;2023-04-03T01:17:57;1.60;99.90
20442;DHT22;10380;52.102;20.614;2023-04-03T01:23:16;1.50;99.90
20442;DHT22;10380;52.102;20.614;2023-04-03T01:25:50;1.50;99.90
20442;DHT22;10380;52.102;20.614;2023-04-03T01:28:26;1.40;99.90
20442;DHT22;10380;52.102;20.614;2023-04-03T01:33:49;1.40;99.90
20442;DHT22;10380;52.102;20.614;2023-04-03T01:36:21;1.30;99.90
20442;DHT22;10380;52.102;20.614;2023-04-03T01:38:48;1.30;99.90
20442;DHT22;10380;52.102;20.614;2023-04-03T01:41:16;1.30;99.90
20442;DHT22;10380;52.102;20.614;2023-04-03T01:43:43;1.30;99.90
20442;DHT22;10380;52.102;20.614;2023-04-03T01:46:10;1.30;99.90
20442;DHT22;10380;52.102;20.614;2023-04-03T01:48:38;1.30;99.90
20442;DHT22;10380;52.102;20.614;2023-04-03T01:51:05;1.20;99.90
20442;DHT22;10380;52.102;20.614;2023-04-03T01:53:32;1.10;99.90
20442;DHT22;10380;52.102;20.614;2023-04-03T01:55:59;1.10;99.90
20442;DHT22;10380;52.102;20.614;2023-04-03T01:58:26;1.10;99.90
20442;DHT22;10380;52.102;20.614;2023-04-03T02:00:53;1.10;99.90
20442;DHT22;10380;52.102;20.614;2023-04-03T02:03:21;1.10;99.90
20442;DHT22;10380;52.102;20.614;2023-04-03T02:05:50;1.00;99.90
20442;DHT22;10380;52.102;20.614;2023-04-03T02:08:17;1.00;99.90
20442;DHT22;10380;52.102;20.614;2023-04-03T02:10:49;1.00;99.90
20442;DHT22;10380;52.102;20.614;2023-04-03T02:13:17;0.90;99.90
20442;DHT22;10380;52.102;20.614;2023-04-03T02:15:45;0.90;99.90
20442;DHT22;10380;52.102;20.614;2023-04-03T02:18:15;0.90;99.90
20442;DHT22;10380;52.102;20.614;2023-04-03T02:20:42;0.80;99.90
20442;DHT22;10380;52.102;20.614;2023-04-03T02:23:09;0.80;99.90
20442;DHT22;10380;52.102;20.614;2023-04-03T02:25:37;0.70;99.90
20442;DHT22;10380;52.102;20.614;2023-04-03T02:28:06;0.70;99.90
20442;DHT22;10380;52.102;20.614;2023-04-03T02:30:33;0.70;99.90
20442;DHT22;10380;52.102;20.614;2023-04-03T02:33:00;0.70;99.90
20442;DHT22;10380;52.102;20.614;2023-04-03T02:35:29;0.60;99.90
20442;DHT22;10380;52.102;20.614;2023-04-03T02:37:57;0.60;99.90
20442;DHT22;10380;52.102;20.614;2023-04-03T02:40:24;0.60;99.90
20442;DHT22;10380;52.102;20.614;2023-04-03T02:42:51;0.50;99.90
20442;DHT22;10380;52.102;20.614;2023-04-03T02:45:18;0.50;99.90
20442;DHT22;10380;52.102;20.614;2023-04-03T02:47:46;0.50;99.90
20442;DHT22;10380;52.102;20.614;2023-04-03T02:50:13;0.40;99.90
20442;DHT22;10380;52.102;20.614;2023-04-03T02:52:40;0.40;99.90
20442;DHT22;10380;52.102;20.614;2023-04-03T02:55:07;0.40;99.90
20442;DHT22;10380;52.102;20.614;2023-04-03T02:57:34;0.40;99.90
20442;DHT22;10380;52.102;20.614;2023-04-03T03:00:02;0.40;99.90
20442;DHT22;10380;52.102;20.614;2023-04-03T03:02:30;0.30;99.90
20442;DHT22;10380;52.102;20.614;2023-04-03T03:04:56;0.30;99.90
20442;DHT22;10380;52.102;20.614;2023-04-03T03:07:24;0.30;99.90
20442;DHT22;10380;52.102;20.614;2023-04-03T03:09:51;0.30;99.90
20442;DHT22;10380;52.102;20.614;2023-04-03T03:12:19;0.20;99.90
20442;DHT22;10380;52.102;20.614;2023-04-03T03:14:48;0.20;99.90
20442;DHT22;10380;52.102;20.614;2023-04-03T03:17:16;0.20;99.90
20442;DHT22;10380;52.102;20.614;2023-04-03T03:19:43;0.20;99.90
20442;DHT22;10380;52.102;20.614;2023-04-03T03:22:10;0.10;99.90
20442;DHT22;10380;52.102;20.614;2023-04-03T03:24:37;0.10;99.90
20442;DHT22;10380;52.102;20.614;2023-04-03T03:27:04;0.10;99.90
20442;DHT22;10380;52.102;20.614;2023-04-03T03:29:31;0.10;99.90
20442;DHT22;10380;52.102;20.614;2023-04-03T03:31:58;0.10;99.90
20442;DHT22;10380;52.102;20.614;2023-04-03T03:34:25;0.00;99.90
20442;DHT22;10380;52.102;20.614;2023-04-03T03:36:52;0.10;99.90
20442;DHT22;10380;52.102;20.614;2023-04-03T03:39:18;0.00;99.90
20442;DHT22;10380;52.102;20.614;2023-04-03T03:41:45;0.00;99.90
20442;DHT22;10380;52.102;20.614;2023-04-03T03:44:12;0.00;99.90
20442;DHT22;10380;52.102;20.614;2023-04-03T03:46:40;-0.10;99.90
20442;DHT22;10380;52.102;20.614;2023-04-03T03:49:07;-0.10;99.90
20442;DHT22;10380;52.102;20.614;2023-04-03T03:51:34;-0.10;99.90
20442;DHT22;10380;52.102;20.614;2023-04-03T03:54:02;-0.10;99.90
20442;DHT22;10380;52.102;20.614;2023-04-03T03:56:28;-0.10;99.90
20442;DHT22;10380;52.102;20.614;2023-04-03T03:58:55;-0.10;99.90
20442;DHT22;10380;52.102;20.614;2023-04-03T04:01:23;-0.10;99.90
20442;DHT22;10380;52.102;20.614;2023-04-03T04:03:50;-0.10;99.90
20442;DHT22;10380;52.102;20.614;2023-04-03T04:06:17;-0.20;99.90
20442;DHT22;10380;52.102;20.614;2023-04-03T04:08:44;-0.20;99.90
20442;DHT22;10380;52.102;20.614;2023-04-03T04:11:11;-0.20;99.90
20442;DHT22;10380;52.102;20.614;2023-04-03T04:13:37;-0.20;99.90
20442;DHT22;10380;52.102;20.614;2023-04-03T04:16:05;-0.20;99.90
20442;DHT22;10380;52.102;20.614;2023-04-03T04:18:31;-0.20;99.90
20442;DHT22;10380;52.102;20.614;2023-04-03T04:20:58;-0.30;99.90
20442;DHT22;10380;52.102;20.614;2023-04-03T04:23:25;-0.30;99.90
20442;DHT22;10380;52.102;20.614;2023-04-03T04:25:52;-0.30;99.90
20442;DHT22;10380;52.102;20.614;2023-04-03T04:28:19;-0.30;99.90
20442;DHT22;10380;52.102;20.614;2023-04-03T04:30:46;-0.30;99.90
20442;DHT22;10380;52.102;20.614;2023-04-03T04:33:13;-0.30;99.90
20442;DHT22;10380;52.102;20.614;2023-04-03T04:35:42;-0.30;99.90
20442;DHT22;10380;52.102;20.614;2023-04-03T04:38:10;-0.40;99.90
20442;DHT22;10380;52.102;20.614;2023-04-03T04:40:36;-0.30;99.90
20442;DHT22;10380;52.102;20.614;2023-04-03T04:43:04;-0.30;99.90
20442;DHT22;10380;52.102;20.614;2023-04-03T04:45:31;-0.30;99.90
20442;DHT22;10380;52.102;20.614;2023-04-03T04:47:58;-0.30;99.90
20442;DHT22;10380;52.102;20.614;2023-04-03T04:50:24;-0.30;99.90
20442;DHT22;10380;52.102;20.614;2023-04-03T04:52:51;-0.30;99.90
20442;DHT22;10380;52.102;20.614;2023-04-03T04:55:19;-0.30;99.90
20442;DHT22;10380;52.102;20.614;2023-04-03T04:57:46;-0.30;99.90
20442;DHT22;10380;52.102;20.614;2023-04-03T05:00:13;-0.30;99.90
20442;DHT22;10380;52.102;20.614;2023-04-03T05:02:40;-0.30;99.90
20442;DHT22;10380;52.102;20.614;2023-04-03T05:05:07;-0.30;99.90
20442;DHT22;10380;52.102;20.614;2023-04-03T05:07:34;-0.30;99.90
20442;DHT22;10380;52.102;20.614;2023-04-03T05:10:03;-0.20;99.90
20442;DHT22;10380;52.102;20.614;2023-04-03T05:12:30;-0.20;99.90
20442;DHT22;10380;52.102;20.614;2023-04-03T05:14:57;-0.20;99.90
20442;DHT22;10380;52.102;20.614;2023-04-03T05:17:23;-0.10;99.90
20442;DHT22;10380;52.102;20.614;2023-04-03T05:19:50;-0.10;99.90
20442;DHT22;10380;52.102;20.614;2023-04-03T05:22:17;0.00;99.90
20442;DHT22;10380;52.102;20.614;2023-04-03T05:24:44;0.00;99.90
20442;DHT22;10380;52.102;20.614;2023-04-03T05:27:10;0.00;99.90
20442;DHT22;10380;52.102;20.614;2023-04-03T05:29:37;0.10;99.90
20442;DHT22;10380;52.102;20.614;2023-04-03T05:32:04;0.10;99.90
20442;DHT22;10380;52.102;20.614;2023-04-03T05:34:31;0.10;99.90
20442;DHT22;10380;52.102;20.614;2023-04-03T05:36:58;0.10;99.90
20442;DHT22;10380;52.102;20.614;2023-04-03T05:39:25;0.10;99.90
20442;DHT22;10380;52.102;20.614;2023-04-03T05:41:52;0.20;99.90
20442;DHT22;10380;52.102;20.614;2023-04-03T05:44:19;0.20;99.90
20442;DHT22;10380;52.102;20.614;2023-04-03T05:46:46;0.30;99.90
20442;DHT22;10380;52.102;20.614;2023-04-03T05:49:14;0.30;99.90
20442;DHT22;10380;52.102;20.614;2023-04-03T05:51:41;0.30;99.90
20442;DHT22;10380;52.102;20.614;2023-04-03T05:54:27;0.40;99.90
20442;DHT22;10380;52.102;20.614;2023-04-03T05:56:55;0.50;99.90
20442;DHT22;10380;52.102;20.614;2023-04-03T05:59:23;0.50;99.90
20442;DHT22;10380;52.102;20.614;2023-04-03T06:01:49;0.60;99.90
20442;DHT22;10380;52.102;20.614;2023-04-03T06:04:16;0.60;99.90
20442;DHT22;10380;52.102;20.614;2023-04-03T06:06:45;0.60;99.90
20442;DHT22;10380;52.102;20.614;2023-04-03T06:09:13;0.60;99.90
20442;DHT22;10380;52.102;20.614;2023-04-03T06:11:41;0.70;99.90
20442;DHT22;10380;52.102;20.614;2023-04-03T06:14:09;0.60;99.90
20442;DHT22;10380;52.102;20.614;2023-04-03T06:16:36;0.70;99.90
20442;DHT22;10380;52.102;20.614;2023-04-03T06:19:06;0.70;99.90
20442;DHT22;10380;52.102;20.614;2023-04-03T06:21:33;0.60;99.90
20442;DHT22;10380;52.102;20.614;2023-04-03T06:24:00;0.60;99.90
20442;DHT22;10380;52.102;20.614;2023-04-03T06:26:27;0.50;99.90
20442;DHT22;10380;52.102;20.614;2023-04-03T06:28:55;0.60;99.90
20442;DHT22;10380;52.102;20.614;2023-04-03T06:31:22;0.60;99.90
20442;DHT22;10380;52.102;20.614;2023-04-03T06:33:50;0.70;99.90
20442;DHT22;10380;52.102;20.614;2023-04-03T06:36:18;0.80;99.90
20442;DHT22;10380;52.102;20.614;2023-04-03T06:38:47;0.90;99.90
20442;DHT22;10380;52.102;20.614;2023-04-03T06:41:14;0.90;99.90
20442;DHT22;10380;52.102;20.614;2023-04-03T06:43:45;1.00;99.90
20442;DHT22;10380;52.102;20.614;2023-04-03T06:46:16;1.00;99.90
20442;DHT22;10380;52.102;20.614;2023-04-03T06:48:44;1.00;99.90
20442;DHT22;10380;52.102;20.614;2023-04-03T06:53:47;1.00;99.90
20442;DHT22;10380;52.102;20.614;2023-04-03T06:56:15;1.10;99.90
20442;DHT22;10380;52.102;20.614;2023-04-03T06:58:43;1.20;99.90
20442;DHT22;10380;52.102;20.614;2023-04-03T07:01:12;1.20;99.90
20442;DHT22;10380;52.102;20.614;2023-04-03T07:03:39;1.30;99.90
20442;DHT22;10380;52.102;20.614;2023-04-03T07:06:09;1.30;99.90
20442;DHT22;10380;52.102;20.614;2023-04-03T07:08:37;1.20;99.90
20442;DHT22;10380;52.102;20.614;2023-04-03T07:11:05;1.20;99.90
20442;DHT22;10380;52.102;20.614;2023-04-03T07:13:32;1.10;99.90
20442;DHT22;10380;52.102;20.614;2023-04-03T07:15:59;1.20;99.90
20442;DHT22;10380;52.102;20.614;2023-04-03T07:18:26;1.20;99.90
20442;DHT22;10380;52.102;20.614;2023-04-03T07:20:53;1.20;99.90
20442;DHT22;10380;52.102;20.614;2023-04-03T07:23:20;1.30;99.90
20442;DHT22;10380;52.102;20.614;2023-04-03T07:25:48;1.30;99.90
20442;DHT22;10380;52.102;20.614;2023-04-03T07:28:16;1.40;99.90
20442;DHT22;10380;52.102;20.614;2023-04-03T07:30:45;1.50;99.90
20442;DHT22;10380;52.102;20.614;2023-04-03T07:33:14;1.50;99.90
20442;DHT22;10380;52.102;20.614;2023-04-03T07:35:41;1.60;99.90
20442;DHT22;10380;52.102;20.614;2023-04-03T07:38:09;1.60;99.90
20442;DHT22;10380;52.102;20.614;2023-04-03T07:40:37;1.70;99.90
20442;DHT22;10380;52.102;20.614;2023-04-03T07:43:04;1.70;99.90
20442;DHT22;10380;52.102;20.614;2023-04-03T07:45:34;1.70;99.90
20442;DHT22;10380;52.102;20.614;2023-04-03T07:48:02;1.70;99.90
20442;DHT22;10380;52.102;20.614;2023-04-03T07:50:29;1.70;99.90
20442;DHT22;10380;52.102;20.614;2023-04-03T07:52:57;1.70;99.90
20442;DHT22;10380;52.102;20.614;2023-04-03T07:55:25;1.80;99.90
20442;DHT22;10380;52.102;20.614;2023-04-03T07:57:52;1.80;99.90
20442;DHT22;10380;52.102;20.614;2023-04-03T08:00:19;1.90;99.90
20442;DHT22;10380;52.102;20.614;2023-04-03T08:02:46;1.90;99.90
20442;DHT22;10380;52.102;20.614;2023-04-03T08:05:19;2.00;99.90
20442;DHT22;10380;52.102;20.614;2023-04-03T08:07:47;2.10;99.90
20442;DHT22;10380;52.102;20.614;2023-04-03T08:10:14;2.20;99.90
20442;DHT22;10380;52.102;20.614;2023-04-03T08:12:41;2.20;99.90
20442;DHT22;10380;52.102;20.614;2023-04-03T08:15:09;2.20;99.90
20442;DHT22;10380;52.102;20.614;2023-04-03T08:17:37;2.30;99.90
20442;DHT22;10380;52.102;20.614;2023-04-03T08:20:05;2.40;99.90
20442;DHT22;10380;52.102;20.614;2023-04-03T08:22:33;2.50;99.90
20442;DHT22;10380;52.102;20.614;2023-04-03T08:25:00;2.50;99.90
20442;DHT22;10380;52.102;20.614;2023-04-03T08:27:28;2.60;99.90
20442;DHT22;10380;52.102;20.614;2023-04-03T08:29:56;2.60;99.90
20442;DHT22;10380;52.102;20.614;2023-04-03T08:32:24;2.60;99.90
20442;DHT22;10380;52.102;20.614;2023-04-03T08:34:51;2.60;99.90
20442;DHT22;10380;52.102;20.614;2023-04-03T08:37:18;2.70;99.90
20442;DHT22;10380;52.102;20.614;2023-04-03T08:39:45;2.70;99.90
20442;DHT22;10380;52.102;20.614;2023-04-03T08:44:59;2.90;99.90
20442;DHT22;10380;52.102;20.614;2023-04-03T08:47:51;3.00;99.90
20442;DHT22;10380;52.102;20.614;2023-04-03T08:50:30;3.00;99.90
20442;DHT22;10380;52.102;20.614;2023-04-03T08:52:59;3.00;99.90
20442;DHT22;10380;52.102;20.614;2023-04-03T08:55:34;3.00;99.90
20442;DHT22;10380;52.102;20.614;2023-04-03T08:58:06;3.00;99.90
20442;DHT22;10380;52.102;20.614;2023-04-03T09:01:01;3.00;99.90
20442;DHT22;10380;52.102;20.614;2023-04-03T09:03:32;3.10;99.90
20442;DHT22;10380;52.102;20.614;2023-04-03T09:06:13;3.30;99.90
20442;DHT22;10380;52.102;20.614;2023-04-03T09:17:00;3.70;99.90
20442;DHT22;10380;52.102;20.614;2023-04-03T09:22:17;3.70;99.90
20442;DHT22;10380;52.102;20.614;2023-04-03T09:24:48;3.90;99.90
20442;DHT22;10380;52.102;20.614;2023-04-03T09:27:16;4.10;99.90
20442;DHT22;10380;52.102;20.614;2023-04-03T09:29:44;4.20;99.90
20442;DHT22;10380;52.102;20.614;2023-04-03T09:32:25;4.30;99.90
20442;DHT22;10380;52.102;20.614;2023-04-03T09:34:54;4.40;99.90
20442;DHT22;10380;52.102;20.614;2023-04-03T09:37:57;4.40;99.90
20442;DHT22;10380;52.102;20.614;2023-04-03T09:42:54;4.40;99.90
20442;DHT22;10380;52.102;20.614;2023-04-03T09:45:33;4.50;99.90
20442;DHT22;10380;52.102;20.614;2023-04-03T09:48:21;4.60;99.90
20442;DHT22;10380;52.102;20.614;2023-04-03T09:55:58;4.30;99.90
20442;DHT22;10380;52.102;20.614;2023-04-03T09:58:33;4.30;99.90
20442;DHT22;10380;52.102;20.614;2023-04-03T10:01:34;4.30;99.90
20442;DHT22;10380;52.102;20.614;2023-04-03T10:04:13;4.20;99.90
20442;DHT22;10380;52.102;20.614;2023-04-03T10:06:44;4.10;99.90
20442;DHT22;10380;52.102;20.614;2023-04-03T10:14:29;4.10;99.90
20442;DHT22;10380;52.102;20.614;2023-04-03T10:17:11;4.30;99.90
20442;DHT22;10380;52.102;20.614;2023-04-03T10:19:55;4.60;99.90
20442;DHT22;10380;52.102;20.614;2023-04-03T10:22:39;4.60;99.90
20442;DHT22;10380;52.102;20.614;2023-04-03T10:25:21;4.50;99.90
20442;DHT22;10380;52.102;20.614;2023-04-03T10:28:09;4.50;99.90
20442;DHT22;10380;52.102;20.614;2023-04-03T10:41:40;4.90;99.90
20442;DHT22;10380;52.102;20.614;2023-04-03T10:44:26;4.80;99.90
20442;DHT22;10380;52.102;20.614;2023-04-03T10:52:48;5.00;99.90
20442;DHT22;10380;52.102;20.614;2023-04-03T10:57:58;5.00;99.90
20442;DHT22;10380;52.102;20.614;2023-04-03T11:00:45;5.10;99.90
20442;DHT22;10380;52.102;20.614;2023-04-03T11:05:51;5.20;99.90
20442;DHT22;10380;52.102;20.614;2023-04-03T11:08:38;5.20;99.90
20442;DHT22;10380;52.102;20.614;2023-04-03T11:11:11;5.00;99.90
20442;DHT22;10380;52.102;20.614;2023-04-03T11:13:52;4.80;99.90
20442;DHT22;10380;52.102;20.614;2023-04-03T11:16:26;4.70;99.90
20442;DHT22;10380;52.102;20.614;2023-04-03T11:19:02;4.70;99.90
20442;DHT22;10380;52.102;20.614;2023-04-03T11:24:05;4.80;99.90
20442;DHT22;10380;52.102;20.614;2023-04-03T11:26:38;5.00;99.90
20442;DHT22;10380;52.102;20.614;2023-04-03T11:29:13;5.30;99.90
20442;DHT22;10380;52.102;20.614;2023-04-03T11:34:49;5.70;99.90
20442;DHT22;10380;52.102;20.614;2023-04-03T11:37:44;5.90;99.90
20442;DHT22;10380;52.102;20.614;2023-04-03T11:45:50;6.10;99.90
20442;DHT22;10380;52.102;20.614;2023-04-03T11:50:51;6.30;99.90
20442;DHT22;10380;52.102;20.614;2023-04-03T11:53:36;6.20;99.90
20442;DHT22;10380;52.102;20.614;2023-04-03T11:59:23;6.20;99.90
20442;DHT22;10380;52.102;20.614;2023-04-03T12:01:54;6.40;99.90
20442;DHT22;10380;52.102;20.614;2023-04-03T12:04:25;6.70;99.90
20442;DHT22;10380;52.102;20.614;2023-04-03T12:07:21;7.20;99.90
20442;DHT22;10380;52.102;20.614;2023-04-03T12:12:34;8.10;99.90
20442;DHT22;10380;52.102;20.614;2023-04-03T12:21:04;8.20;99.90
20442;DHT22;10380;52.102;20.614;2023-04-03T12:23:33;8.60;99.90
20442;DHT22;10380;52.102;20.614;2023-04-03T12:26:06;8.80;99.90
20442;DHT22;10380;52.102;20.614;2023-04-03T12:28:46;8.70;99.90
20442;DHT22;10380;52.102;20.614;2023-04-03T12:31:15;8.20;99.90
20442;DHT22;10380;52.102;20.614;2023-04-03T12:42:43;7.20;99.90
20442;DHT22;10380;52.102;20.614;2023-04-03T12:45:20;7.50;99.90
20442;DHT22;10380;52.102;20.614;2023-04-03T12:47:55;8.10;99.90
20442;DHT22;10380;52.102;20.614;2023-04-03T12:50:27;8.80;99.90
20442;DHT22;10380;52.102;20.614;2023-04-03T12:53:00;9.40;99.90
20442;DHT22;10380;52.102;20.614;2023-04-03T12:55:28;9.90;99.50
20442;DHT22;10380;52.102;20.614;2023-04-03T12:57:55;10.40;99.20
20442;DHT22;10380;52.102;20.614;2023-04-03T13:00:34;10.50;97.90
20442;DHT22;10380;52.102;20.614;2023-04-03T13:03:03;10.40;96.90
20442;DHT22;10380;52.102;20.614;2023-04-03T13:05:31;9.90;96.80
20442;DHT22;10380;52.102;20.614;2023-04-03T13:08:05;9.50;97.00
20442;DHT22;10380;52.102;20.614;2023-04-03T13:10:56;9.10;97.40
20442;DHT22;10380;52.102;20.614;2023-04-03T13:13:24;8.70;97.20
20442;DHT22;10380;52.102;20.614;2023-04-03T13:15:53;8.10;96.60
20442;DHT22;10380;52.102;20.614;2023-04-03T13:18:28;7.70;96.60
20442;DHT22;10380;52.102;20.614;2023-04-03T13:21:05;7.90;97.40
20442;DHT22;10380;52.102;20.614;2023-04-03T13:23:36;8.60;97.30
20442;DHT22;10380;52.102;20.614;2023-04-03T13:26:05;9.60;97.10
20442;DHT22;10380;52.102;20.614;2023-04-03T13:28:34;10.10;95.60
20442;DHT22;10380;52.102;20.614;2023-04-03T13:36:29;9.00;94.90
20442;DHT22;10380;52.102;20.614;2023-04-03T13:41:32;8.30;96.30
20442;DHT22;10380;52.102;20.614;2023-04-03T13:46:50;7.60;96.30
20442;DHT22;10380;52.102;20.614;2023-04-03T13:49:42;7.30;96.80
20442;DHT22;10380;52.102;20.614;2023-04-03T13:52:32;7.00;97.20
20442;DHT22;10380;52.102;20.614;2023-04-03T13:57:57;7.30;97.30
20442;DHT22;10380;52.102;20.614;2023-04-03T14:02:58;7.30;97.60
20442;DHT22;10380;52.102;20.614;2023-04-03T14:05:25;7.10;97.50
20442;DHT22;10380;52.102;20.614;2023-04-03T14:07:54;6.90;98.60
20442;DHT22;10380;52.102;20.614;2023-04-03T14:10:22;6.70;98.80
20442;DHT22;10380;52.102;20.614;2023-04-03T14:12:50;6.60;99.70
20442;DHT22;10380;52.102;20.614;2023-04-03T14:15:24;6.70;99.50
20442;DHT22;10380;52.102;20.614;2023-04-03T14:17:53;6.90;99.10
20442;DHT22;10380;52.102;20.614;2023-04-03T14:20:24;7.00;99.20
20442;DHT22;10380;52.102;20.614;2023-04-03T14:22:52;7.10;98.80
20442;DHT22;10380;52.102;20.614;2023-04-03T14:25:21;7.10;98.40
20442;DHT22;10380;52.102;20.614;2023-04-03T14:27:52;7.00;98.60
20442;DHT22;10380;52.102;20.614;2023-04-03T14:30:31;6.90;98.40
20442;DHT22;10380;52.102;20.614;2023-04-03T14:32:59;6.70;98.50
20442;DHT22;10380;52.102;20.614;2023-04-03T14:35:27;6.60;98.60
20442;DHT22;10380;52.102;20.614;2023-04-03T14:37:56;6.50;98.40
20442;DHT22;10380;52.102;20.614;2023-04-03T14:40:26;6.40;98.30
20442;DHT22;10380;52.102;20.614;2023-04-03T14:42:54;6.40;98.00
20442;DHT22;10380;52.102;20.614;2023-04-03T14:45:23;6.40;98.30
20442;DHT22;10380;52.102;20.614;2023-04-03T14:47:54;6.30;98.70
20442;DHT22;10380;52.102;20.614;2023-04-03T14:50:26;6.10;99.20
20442;DHT22;10380;52.102;20.614;2023-04-03T14:52:56;6.10;99.40
20442;DHT22;10380;52.102;20.614;2023-04-03T14:55:25;5.90;99.30
20442;DHT22;10380;52.102;20.614;2023-04-03T14:57:53;5.80;99.80
20442;DHT22;10380;52.102;20.614;2023-04-03T15:00:21;5.80;99.90
20442;DHT22;10380;52.102;20.614;2023-04-03T15:02:49;5.80;99.90
20442;DHT22;10380;52.102;20.614;2023-04-03T15:05:16;5.70;99.90
20442;DHT22;10380;52.102;20.614;2023-04-03T15:07:50;5.70;99.90
20442;DHT22;10380;52.102;20.614;2023-04-03T15:10:29;5.60;99.90
20442;DHT22;10380;52.102;20.614;2023-04-03T15:12:56;5.60;99.90
20442;DHT22;10380;52.102;20.614;2023-04-03T15:15:24;5.50;99.90
20442;DHT22;10380;52.102;20.614;2023-04-03T15:17:55;5.50;99.90
20442;DHT22;10380;52.102;20.614;2023-04-03T15:20:26;5.50;99.90
20442;DHT22;10380;52.102;20.614;2023-04-03T15:22:54;5.50;99.90
20442;DHT22;10380;52.102;20.614;2023-04-03T15:25:23;5.50;99.90
20442;DHT22;10380;52.102;20.614;2023-04-03T15:27:51;5.60;99.90
20442;DHT22;10380;52.102;20.614;2023-04-03T15:30:18;5.50;99.90
20442;DHT22;10380;52.102;20.614;2023-04-03T15:32:46;5.40;99.90
20442;DHT22;10380;52.102;20.614;2023-04-03T15:35:13;5.40;99.90
20442;DHT22;10380;52.102;20.614;2023-04-03T15:37:41;5.40;99.90
20442;DHT22;10380;52.102;20.614;2023-04-03T15:40:08;5.40;99.90
20442;DHT22;10380;52.102;20.614;2023-04-03T15:42:35;5.40;99.90
20442;DHT22;10380;52.102;20.614;2023-04-03T15:45:03;5.30;99.90
20442;DHT22;10380;52.102;20.614;2023-04-03T15:47:31;5.30;99.90
20442;DHT22;10380;52.102;20.614;2023-04-03T15:49:58;5.30;99.90
20442;DHT22;10380;52.102;20.614;2023-04-03T15:52:24;5.20;99.90
20442;DHT22;10380;52.102;20.614;2023-04-03T15:54:53;5.20;99.90
20442;DHT22;10380;52.102;20.614;2023-04-03T15:57:19;5.20;99.90
20442;DHT22;10380;52.102;20.614;2023-04-03T15:59:47;5.20;99.90
20442;DHT22;10380;52.102;20.614;2023-04-03T16:02:13;5.20;99.90
20442;DHT22;10380;52.102;20.614;2023-04-03T16:04:41;5.20;99.90
20442;DHT22;10380;52.102;20.614;2023-04-03T16:07:08;5.20;99.90
20442;DHT22;10380;52.102;20.614;2023-04-03T16:09:36;5.20;99.90
20442;DHT22;10380;52.102;20.614;2023-04-03T16:12:05;5.20;99.90
20442;DHT22;10380;52.102;20.614;2023-04-03T16:14:32;5.10;99.90
20442;DHT22;10380;52.102;20.614;2023-04-03T16:17:00;5.10;99.90
20442;DHT22;10380;52.102;20.614;2023-04-03T16:19:29;5.10;99.90
20442;DHT22;10380;52.102;20.614;2023-04-03T16:21:57;5.10;99.90
20442;DHT22;10380;52.102;20.614;2023-04-03T16:24:24;5.10;99.90
20442;DHT22;10380;52.102;20.614;2023-04-03T16:26:51;5.10;99.90
20442;DHT22;10380;52.102;20.614;2023-04-03T16:29:20;5.10;99.90
20442;DHT22;10380;52.102;20.614;2023-04-03T16:31:47;5.10;99.90
20442;DHT22;10380;52.102;20.614;2023-04-03T16:34:14;5.00;99.90
20442;DHT22;10380;52.102;20.614;2023-04-03T16:36:42;5.00;99.90
20442;DHT22;10380;52.102;20.614;2023-04-03T16:39:09;4.90;99.90
20442;DHT22;10380;52.102;20.614;2023-04-03T16:41:39;4.90;99.90
20442;DHT22;10380;52.102;20.614;2023-04-03T16:44:06;4.90;99.90
20442;DHT22;10380;52.102;20.614;2023-04-03T16:46:34;4.90;99.90
20442;DHT22;10380;52.102;20.614;2023-04-03T16:49:01;4.90;99.90
20442;DHT22;10380;52.102;20.614;2023-04-03T16:51:28;4.80;99.90
20442;DHT22;10380;52.102;20.614;2023-04-03T16:53:55;4.80;99.90
20442;DHT22;10380;52.102;20.614;2023-04-03T16:56:22;4.80;99.90
20442;DHT22;10380;52.102;20.614;2023-04-03T16:58:49;4.70;99.90
20442;DHT22;10380;52.102;20.614;2023-04-03T17:01:18;4.70;99.90
20442;DHT22;10380;52.102;20.614;2023-04-03T17:03:47;4.70;99.90
20442;DHT22;10380;52.102;20.614;2023-04-03T17:06:19;4.70;99.90
20442;DHT22;10380;52.102;20.614;2023-04-03T17:08:48;4.70;99.90
20442;DHT22;10380;52.102;20.614;2023-04-03T17:11:16;4.60;99.90
20442;DHT22;10380;52.102;20.614;2023-04-03T17:13:45;4.60;99.90
20442;DHT22;10380;52.102;20.614;2023-04-03T17:16:14;4.60;99.90
20442;DHT22;10380;52.102;20.614;2023-04-03T17:18:42;4.50;99.90
20442;DHT22;10380;52.102;20.614;2023-04-03T17:21:11;4.50;99.90
20442;DHT22;10380;52.102;20.614;2023-04-03T17:23:39;4.50;99.90
20442;DHT22;10380;52.102;20.614;2023-04-03T17:26:07;4.50;99.90
20442;DHT22;10380;52.102;20.614;2023-04-03T17:28:34;4.50;99.90
20442;DHT22;10380;52.102;20.614;2023-04-03T17:31:03;4.40;99.90
20442;DHT22;10380;52.102;20.614;2023-04-03T17:33:32;4.40;99.90